sensor_id;sensor_type;location;lat;lon;timestamp;P1;durP1;ratioP1;P2;durP2;ratioP2
3309;SDS011;1667;53.238;10.394;2024-02-26T00:03:34;6.70;;;4.13;;
3309;SDS011;1667;53.238;10.394;2024-02-26T00:08:33;7.27;;;4.60;;
3309;SDS011;1667;53.238;10.394;2024-02-26T00:13:32;7.90;;;4.70;;
3309;SDS011;1667;53.238;10.394;2024-02-26T00:18:32;3.73;;;3.40;;
3309;SDS011;1667;53.238;10.394;2024-02-26T00:23:31;4.87;;;3.37;;
3309;SDS011;1667;53.238;10.394;2024-02-26T00:28:30;4.83;;;3.77;;
3309;SDS011;1667;53.238;10.394;2024-02-26T00:33:29;5.03;;;3.60;;
3309;SDS011;1667;53.238;10.394;2024-02-26T00:38:30;4.13;;;3.73;;
3309;SDS011;1667;53.238;10.394;2024-02-26T00:43:29;4.97;;;3.80;;
3309;SDS011;1667;53.238;10.394;2024-02-26T00:48:28;4.23;;;3.83;;
3309;SDS011;1667;53.238;10.394;2024-02-26T00:53:27;6.60;;;4.50;;
3309;SDS011;1667;53.238;10.394;2024-02-26T00:58:28;4.60;;;3.80;;
3309;SDS011;1667;53.238;10.394;2024-02-26T01:03:27;3.50;;;3.20;;
3309;SDS011;1667;53.238;10.394;2024-02-26T01:08:26;3.30;;;3.00;;
3309;SDS011;1667;53.238;10.394;2024-02-26T01:13:25;5.20;;;4.07;;
3309;SDS011;1667;53.238;10.394;2024-02-26T01:18:25;2.87;;;2.60;;
3309;SDS011;1667;53.238;10.394;2024-02-26T01:23:24;4.87;;;3.87;;
3309;SDS011;1667;53.238;10.394;2024-02-26T01:28:23;7.23;;;4.50;;
3309;SDS011;1667;53.238;10.394;2024-02-26T01:33:22;3.50;;;3.20;;
3309;SDS011;1667;53.238;10.394;2024-02-26T01:38:23;5.80;;;4.00;;
3309;SDS011;1667;53.238;10.394;2024-02-26T01:43:22;10.40;;;5.57;;
3309;SDS011;1667;53.238;10.394;2024-02-26T01:48:21;6.53;;;4.83;;
3309;SDS011;1667;53.238;10.394;2024-02-26T01:53:21;6.70;;;4.93;;
3309;SDS011;1667;53.238;10.394;2024-02-26T01:58:21;5.00;;;4.30;;
3309;SDS011;1667;53.238;10.394;2024-02-26T02:03:20;6.27;;;4.00;;
3309;SDS011;1667;53.238;10.394;2024-02-26T02:08:21;5.50;;;4.10;;
3309;SDS011;1667;53.238;10.394;2024-02-26T02:13:21;4.63;;;3.93;;
3309;SDS011;1667;53.238;10.394;2024-02-26T02:18:20;6.00;;;4.30;;
3309;SDS011;1667;53.238;10.394;2024-02-26T02:23:20;5.47;;;3.90;;
3309;SDS011;1667;53.238;10.394;2024-02-26T02:28:19;6.87;;;4.10;;
3309;SDS011;1667;53.238;10.394;2024-02-26T02:33:18;5.13;;;4.17;;
3309;SDS011;1667;53.238;10.394;2024-02-26T02:38:18;5.10;;;4.30;;
3309;SDS011;1667;53.238;10.394;2024-02-26T02:43:18;7.43;;;4.60;;
3309;SDS011;1667;53.238;10.394;2024-02-26T02:48:16;6.50;;;4.40;;
3309;SDS011;1667;53.238;10.394;2024-02-26T02:53:15;6.83;;;4.17;;
3309;SDS011;1667;53.238;10.394;2024-02-26T02:58:15;6.33;;;4.13;;
3309;SDS011;1667;53.238;10.394;2024-02-26T03:03:15;4.90;;;4.10;;
3309;SDS011;1667;53.238;10.394;2024-02-26T03:08:14;6.27;;;4.20;;
3309;SDS011;1667;53.238;10.394;2024-02-26T03:13:13;5.10;;;4.00;;
3309;SDS011;1667;53.238;10.394;2024-02-26T03:18:14;6.20;;;3.83;;
3309;SDS011;1667;53.238;10.394;2024-02-26T03:23:14;5.53;;;4.00;;
3309;SDS011;1667;53.238;10.394;2024-02-26T03:28:14;5.03;;;3.67;;
3309;SDS011;1667;53.238;10.394;2024-02-26T03:33:14;5.33;;;3.73;;
3309;SDS011;1667;53.238;10.394;2024-02-26T03:38:13;4.90;;;4.20;;
3309;SDS011;1667;53.238;10.394;2024-02-26T03:43:12;5.13;;;3.70;;
3309;SDS011;1667;53.238;10.394;2024-02-26T03:48:13;4.80;;;4.27;;
3309;SDS011;1667;53.238;10.394;2024-02-26T03:53:13;4.47;;;4.07;;
3309;SDS011;1667;53.238;10.394;2024-02-26T03:58:12;5.53;;;3.70;;
3309;SDS011;1667;53.238;10.394;2024-02-26T04:03:11;6.30;;;4.53;;
3309;SDS011;1667;53.238;10.394;2024-02-26T04:08:12;4.20;;;3.10;;
3309;SDS011;1667;53.238;10.394;2024-02-26T04:13:10;5.00;;;3.33;;
3309;SDS011;1667;53.238;10.394;2024-02-26T04:18:09;4.00;;;3.60;;
3309;SDS011;1667;53.238;10.394;2024-02-26T04:23:08;5.43;;;4.27;;
3309;SDS011;1667;53.238;10.394;2024-02-26T04:28:09;5.53;;;4.43;;
3309;SDS011;1667;53.238;10.394;2024-02-26T04:33:08;6.97;;;3.70;;
3309;SDS011;1667;53.238;10.394;2024-02-26T04:38:07;4.53;;;4.10;;
3309;SDS011;1667;53.238;10.394;2024-02-26T04:43:06;4.87;;;4.17;;
3309;SDS011;1667;53.238;10.394;2024-02-26T04:48:07;4.00;;;3.43;;
3309;SDS011;1667;53.238;10.394;2024-02-26T04:53:06;6.10;;;3.97;;
3309;SDS011;1667;53.238;10.394;2024-02-26T04:58:05;6.37;;;5.23;;
3309;SDS011;1667;53.238;10.394;2024-02-26T05:03:04;6.30;;;4.67;;
3309;SDS011;1667;53.238;10.394;2024-02-26T05:08:05;10.13;;;4.97;;
3309;SDS011;1667;53.238;10.394;2024-02-26T05:13:04;7.53;;;5.13;;
3309;SDS011;1667;53.238;10.394;2024-02-26T05:18:03;6.30;;;4.37;;
3309;SDS011;1667;53.238;10.394;2024-02-26T05:23:04;5.13;;;4.63;;
3309;SDS011;1667;53.238;10.394;2024-02-26T05:28:03;4.70;;;3.70;;
3309;SDS011;1667;53.238;10.394;2024-02-26T05:33:02;5.77;;;4.97;;
3309;SDS011;1667;53.238;10.394;2024-02-26T05:38:04;5.87;;;4.27;;
3309;SDS011;1667;53.238;10.394;2024-02-26T05:43:03;10.73;;;6.07;;
3309;SDS011;1667;53.238;10.394;2024-02-26T05:48:03;8.60;;;5.80;;
3309;SDS011;1667;53.238;10.394;2024-02-26T05:53:04;8.00;;;5.50;;
3309;SDS011;1667;53.238;10.394;2024-02-26T05:58:03;6.07;;;5.17;;
3309;SDS011;1667;53.238;10.394;2024-02-26T06:03:02;7.13;;;5.37;;
3309;SDS011;1667;53.238;10.394;2024-02-26T06:08:01;5.90;;;4.70;;
3309;SDS011;1667;53.238;10.394;2024-02-26T06:13:02;7.90;;;5.60;;
3309;SDS011;1667;53.238;10.394;2024-02-26T06:18:01;6.30;;;5.13;;
3309;SDS011;1667;53.238;10.394;2024-02-26T06:23:00;6.80;;;5.33;;
3309;SDS011;1667;53.238;10.394;2024-02-26T06:27:59;6.00;;;4.53;;
3309;SDS011;1667;53.238;10.394;2024-02-26T06:38:53;6.60;;;4.50;;
3309;SDS011;1667;53.238;10.394;2024-02-26T06:43:52;7.20;;;4.70;;
3309;SDS011;1667;53.238;10.394;2024-02-26T06:48:51;6.40;;;4.73;;
3309;SDS011;1667;53.238;10.394;2024-02-26T06:53:51;5.13;;;4.63;;
3309;SDS011;1667;53.238;10.394;2024-02-26T06:58:52;7.13;;;5.60;;
3309;SDS011;1667;53.238;10.394;2024-02-26T07:03:51;6.30;;;4.93;;
3309;SDS011;1667;53.238;10.394;2024-02-26T07:08:49;5.33;;;4.83;;
3309;SDS011;1667;53.238;10.394;2024-02-26T07:13:50;5.73;;;4.30;;
3309;SDS011;1667;53.238;10.394;2024-02-26T07:18:49;7.70;;;5.33;;
3309;SDS011;1667;53.238;10.394;2024-02-26T07:23:48;6.03;;;4.37;;
3309;SDS011;1667;53.238;10.394;2024-02-26T07:28:48;4.77;;;3.97;;
3309;SDS011;1667;53.238;10.394;2024-02-26T07:33:49;5.13;;;4.63;;
3309;SDS011;1667;53.238;10.394;2024-02-26T07:38:48;5.10;;;3.93;;
3309;SDS011;1667;53.238;10.394;2024-02-26T07:43:49;5.10;;;4.47;;
3309;SDS011;1667;53.238;10.394;2024-02-26T07:48:47;3.73;;;3.40;;
3309;SDS011;1667;53.238;10.394;2024-02-26T07:53:48;3.77;;;3.40;;
3309;SDS011;1667;53.238;10.394;2024-02-26T07:58:50;6.63;;;3.83;;
3309;SDS011;1667;53.238;10.394;2024-02-26T08:03:50;4.73;;;4.33;;
3309;SDS011;1667;53.238;10.394;2024-02-26T08:08:49;4.37;;;4.07;;
3309;SDS011;1667;53.238;10.394;2024-02-26T08:13:48;6.97;;;5.03;;
3309;SDS011;1667;53.238;10.394;2024-02-26T08:18:48;6.40;;;4.57;;
3309;SDS011;1667;53.238;10.394;2024-02-26T08:23:48;7.30;;;4.73;;
3309;SDS011;1667;53.238;10.394;2024-02-26T08:28:48;6.43;;;5.30;;
3309;SDS011;1667;53.238;10.394;2024-02-26T08:33:50;5.40;;;4.70;;
3309;SDS011;1667;53.238;10.394;2024-02-26T08:38:48;7.97;;;5.00;;
3309;SDS011;1667;53.238;10.394;2024-02-26T08:43:48;5.93;;;4.80;;
3309;SDS011;1667;53.238;10.394;2024-02-26T08:48:47;7.13;;;5.10;;
3309;SDS011;1667;53.238;10.394;2024-02-26T08:53:48;6.13;;;5.53;;
3309;SDS011;1667;53.238;10.394;2024-02-26T08:58:48;4.97;;;4.43;;
3309;SDS011;1667;53.238;10.394;2024-02-26T09:03:50;8.27;;;5.90;;
3309;SDS011;1667;53.238;10.394;2024-02-26T09:08:51;5.93;;;5.30;;
3309;SDS011;1667;53.238;10.394;2024-02-26T09:13:49;8.23;;;5.00;;
3309;SDS011;1667;53.238;10.394;2024-02-26T09:18:49;6.37;;;5.37;;
3309;SDS011;1667;53.238;10.394;2024-02-26T09:23:52;6.17;;;5.57;;
3309;SDS011;1667;53.238;10.394;2024-02-26T09:28:50;5.17;;;4.67;;
3309;SDS011;1667;53.238;10.394;2024-02-26T09:33:49;5.90;;;4.83;;
3309;SDS011;1667;53.238;10.394;2024-02-26T09:38:49;6.30;;;4.97;;
3309;SDS011;1667;53.238;10.394;2024-02-26T09:43:58;5.07;;;4.67;;
3309;SDS011;1667;53.238;10.394;2024-02-26T09:48:56;5.10;;;4.60;;
3309;SDS011;1667;53.238;10.394;2024-02-26T09:53:57;6.77;;;5.10;;
3309;SDS011;1667;53.238;10.394;2024-02-26T09:59:02;7.93;;;5.53;;
3309;SDS011;1667;53.238;10.394;2024-02-26T10:04:07;7.13;;;5.83;;
3309;SDS011;1667;53.238;10.394;2024-02-26T10:09:09;5.40;;;4.90;;
3309;SDS011;1667;53.238;10.394;2024-02-26T10:14:09;8.93;;;6.20;;
3309;SDS011;1667;53.238;10.394;2024-02-26T10:19:09;5.87;;;5.17;;
3309;SDS011;1667;53.238;10.394;2024-02-26T10:24:25;7.57;;;5.87;;
3309;SDS011;1667;53.238;10.394;2024-02-26T10:29:25;8.27;;;5.77;;
3309;SDS011;1667;53.238;10.394;2024-02-26T10:34:25;8.90;;;5.37;;
3309;SDS011;1667;53.238;10.394;2024-02-26T10:39:26;5.27;;;4.77;;
3309;SDS011;1667;53.238;10.394;2024-02-26T10:44:25;5.17;;;4.60;;
3309;SDS011;1667;53.238;10.394;2024-02-26T10:49:24;4.87;;;4.17;;
3309;SDS011;1667;53.238;10.394;2024-02-26T10:54:23;4.50;;;4.10;;
3309;SDS011;1667;53.238;10.394;2024-02-26T10:59:26;7.20;;;4.67;;
3309;SDS011;1667;53.238;10.394;2024-02-26T11:04:24;4.50;;;4.10;;
3309;SDS011;1667;53.238;10.394;2024-02-26T11:09:26;4.73;;;4.30;;
3309;SDS011;1667;53.238;10.394;2024-02-26T11:14:26;4.20;;;3.77;;
3309;SDS011;1667;53.238;10.394;2024-02-26T11:19:28;3.63;;;3.23;;
3309;SDS011;1667;53.238;10.394;2024-02-26T11:24:35;3.40;;;3.10;;
3309;SDS011;1667;53.238;10.394;2024-02-26T11:29:38;3.70;;;3.40;;
3309;SDS011;1667;53.238;10.394;2024-02-26T11:34:41;3.80;;;3.37;;
3309;SDS011;1667;53.238;10.394;2024-02-26T11:39:42;3.73;;;3.00;;
3309;SDS011;1667;53.238;10.394;2024-02-26T11:44:44;3.77;;;3.43;;
3309;SDS011;1667;53.238;10.394;2024-02-26T11:49:43;3.63;;;3.23;;
3309;SDS011;1667;53.238;10.394;2024-02-26T11:54:47;4.23;;;3.30;;
3309;SDS011;1667;53.238;10.394;2024-02-26T12:00:10;2.60;;;2.47;;
3309;SDS011;1667;53.238;10.394;2024-02-26T12:05:11;3.37;;;3.07;;
3309;SDS011;1667;53.238;10.394;2024-02-26T12:15:36;3.00;;;2.80;;
3309;SDS011;1667;53.238;10.394;2024-02-26T12:20:36;2.70;;;2.50;;
3309;SDS011;1667;53.238;10.394;2024-02-26T12:25:37;3.07;;;2.87;;
3309;SDS011;1667;53.238;10.394;2024-02-26T12:30:36;3.37;;;3.03;;
3309;SDS011;1667;53.238;10.394;2024-02-26T12:35:35;3.40;;;3.10;;
3309;SDS011;1667;53.238;10.394;2024-02-26T12:40:33;3.60;;;3.30;;
3309;SDS011;1667;53.238;10.394;2024-02-26T12:45:34;3.23;;;2.80;;
3309;SDS011;1667;53.238;10.394;2024-02-26T12:50:33;2.90;;;2.57;;
3309;SDS011;1667;53.238;10.394;2024-02-26T12:55:32;3.40;;;3.13;;
3309;SDS011;1667;53.238;10.394;2024-02-26T13:00:35;2.70;;;2.50;;
3309;SDS011;1667;53.238;10.394;2024-02-26T13:05:35;3.50;;;3.20;;
3309;SDS011;1667;53.238;10.394;2024-02-26T13:10:34;3.13;;;2.83;;
3309;SDS011;1667;53.238;10.394;2024-02-26T13:15:34;3.03;;;2.70;;
3309;SDS011;1667;53.238;10.394;2024-02-26T13:20:33;2.87;;;2.67;;
3309;SDS011;1667;53.238;10.394;2024-02-26T13:25:34;2.60;;;2.40;;
3309;SDS011;1667;53.238;10.394;2024-02-26T13:30:42;2.53;;;2.40;;
3309;SDS011;1667;53.238;10.394;2024-02-26T13:35:49;4.20;;;2.87;;
3309;SDS011;1667;53.238;10.394;2024-02-26T13:40:49;6.13;;;2.57;;
3309;SDS011;1667;53.238;10.394;2024-02-26T13:45:49;1.90;;;1.80;;
3309;SDS011;1667;53.238;10.394;2024-02-26T13:50:49;2.50;;;2.30;;
3309;SDS011;1667;53.238;10.394;2024-02-26T13:55:48;2.40;;;2.20;;
3309;SDS011;1667;53.238;10.394;2024-02-26T14:00:47;2.43;;;2.20;;
3309;SDS011;1667;53.238;10.394;2024-02-26T14:05:47;3.20;;;2.90;;
3309;SDS011;1667;53.238;10.394;2024-02-26T14:10:47;3.87;;;3.37;;
3309;SDS011;1667;53.238;10.394;2024-02-26T14:15:46;3.57;;;3.03;;
3309;SDS011;1667;53.238;10.394;2024-02-26T14:20:47;3.10;;;2.77;;
3309;SDS011;1667;53.238;10.394;2024-02-26T14:25:46;3.03;;;2.80;;
3309;SDS011;1667;53.238;10.394;2024-02-26T14:30:44;4.37;;;3.97;;
3309;SDS011;1667;53.238;10.394;2024-02-26T14:35:43;5.70;;;4.23;;
3309;SDS011;1667;53.238;10.394;2024-02-26T14:40:44;5.57;;;5.07;;
3309;SDS011;1667;53.238;10.394;2024-02-26T14:45:43;5.07;;;4.33;;
3309;SDS011;1667;53.238;10.394;2024-02-26T14:50:42;4.67;;;4.20;;
3309;SDS011;1667;53.238;10.394;2024-02-26T14:55:40;6.43;;;4.30;;
3309;SDS011;1667;53.238;10.394;2024-02-26T15:00:41;6.60;;;5.60;;
3309;SDS011;1667;53.238;10.394;2024-02-26T15:05:40;7.83;;;5.30;;
3309;SDS011;1667;53.238;10.394;2024-02-26T15:10:39;9.10;;;6.50;;
3309;SDS011;1667;53.238;10.394;2024-02-26T15:15:46;7.87;;;7.03;;
3309;SDS011;1667;53.238;10.394;2024-02-26T15:20:45;9.40;;;7.57;;
3309;SDS011;1667;53.238;10.394;2024-02-26T15:25:44;12.47;;;8.10;;
3309;SDS011;1667;53.238;10.394;2024-02-26T15:30:43;9.77;;;7.17;;
3309;SDS011;1667;53.238;10.394;2024-02-26T15:35:44;10.93;;;8.17;;
3309;SDS011;1667;53.238;10.394;2024-02-26T15:40:43;9.17;;;6.83;;
3309;SDS011;1667;53.238;10.394;2024-02-26T15:45:45;10.40;;;8.40;;
3309;SDS011;1667;53.238;10.394;2024-02-26T15:50:44;13.70;;;10.10;;
3309;SDS011;1667;53.238;10.394;2024-02-26T15:55:43;12.73;;;8.50;;
3309;SDS011;1667;53.238;10.394;2024-02-26T16:00:42;15.03;;;9.50;;
3309;SDS011;1667;53.238;10.394;2024-02-26T16:05:43;16.43;;;10.50;;
3309;SDS011;1667;53.238;10.394;2024-02-26T16:10:42;14.93;;;9.60;;
3309;SDS011;1667;53.238;10.394;2024-02-26T16:15:43;17.10;;;10.47;;
3309;SDS011;1667;53.238;10.394;2024-02-26T16:20:46;14.20;;;9.43;;
3309;SDS011;1667;53.238;10.394;2024-02-26T16:25:45;14.73;;;9.17;;
3309;SDS011;1667;53.238;10.394;2024-02-26T16:30:47;17.00;;;9.27;;
3309;SDS011;1667;53.238;10.394;2024-02-26T16:35:47;18.40;;;10.77;;
3309;SDS011;1667;53.238;10.394;2024-02-26T16:40:47;19.27;;;10.53;;
3309;SDS011;1667;53.238;10.394;2024-02-26T16:45:46;19.93;;;12.00;;
3309;SDS011;1667;53.238;10.394;2024-02-26T16:50:46;19.70;;;10.20;;
3309;SDS011;1667;53.238;10.394;2024-02-26T16:55:46;19.23;;;10.43;;
3309;SDS011;1667;53.238;10.394;2024-02-26T17:00:45;16.67;;;11.70;;
3309;SDS011;1667;53.238;10.394;2024-02-26T17:05:44;19.03;;;10.70;;
3309;SDS011;1667;53.238;10.394;2024-02-26T17:10:45;20.83;;;10.10;;
3309;SDS011;1667;53.238;10.394;2024-02-26T17:15:44;21.57;;;12.33;;
3309;SDS011;1667;53.238;10.394;2024-02-26T17:20:43;19.57;;;11.10;;
3309;SDS011;1667;53.238;10.394;2024-02-26T17:25:42;20.43;;;10.90;;
3309;SDS011;1667;53.238;10.394;2024-02-26T17:30:42;16.77;;;9.20;;
3309;SDS011;1667;53.238;10.394;2024-02-26T17:35:42;22.63;;;11.97;;
3309;SDS011;1667;53.238;10.394;2024-02-26T17:40:42;18.30;;;9.67;;
3309;SDS011;1667;53.238;10.394;2024-02-26T17:45:40;18.20;;;12.10;;
3309;SDS011;1667;53.238;10.394;2024-02-26T17:50:41;17.10;;;9.90;;
3309;SDS011;1667;53.238;10.394;2024-02-26T17:55:40;21.53;;;11.03;;
3309;SDS011;1667;53.238;10.394;2024-02-26T18:00:39;23.47;;;12.50;;
3309;SDS011;1667;53.238;10.394;2024-02-26T18:05:39;19.20;;;10.40;;
3309;SDS011;1667;53.238;10.394;2024-02-26T18:10:39;19.80;;;10.40;;
3309;SDS011;1667;53.238;10.394;2024-02-26T18:15:39;14.73;;;9.27;;
3309;SDS011;1667;53.238;10.394;2024-02-26T18:20:39;19.20;;;10.10;;
3309;SDS011;1667;53.238;10.394;2024-02-26T18:25:38;22.20;;;12.10;;
3309;SDS011;1667;53.238;10.394;2024-02-26T18:30:38;19.03;;;10.23;;
3309;SDS011;1667;53.238;10.394;2024-02-26T18:35:41;21.77;;;11.33;;
3309;SDS011;1667;53.238;10.394;2024-02-26T18:47:28;22.43;;;10.57;;
3309;SDS011;1667;53.238;10.394;2024-02-26T18:52:29;18.20;;;10.40;;
3309;SDS011;1667;53.238;10.394;2024-02-26T18:57:28;17.00;;;9.33;;
3309;SDS011;1667;53.238;10.394;2024-02-26T19:02:27;15.80;;;9.40;;
3309;SDS011;1667;53.238;10.394;2024-02-26T19:07:26;17.67;;;10.20;;
3309;SDS011;1667;53.238;10.394;2024-02-26T19:12:26;19.20;;;10.27;;
3309;SDS011;1667;53.238;10.394;2024-02-26T19:17:25;18.20;;;10.00;;
3309;SDS011;1667;53.238;10.394;2024-02-26T19:22:24;19.50;;;10.03;;
3309;SDS011;1667;53.238;10.394;2024-02-26T19:27:22;22.40;;;10.67;;
3309;SDS011;1667;53.238;10.394;2024-02-26T19:32:22;20.80;;;10.03;;
3309;SDS011;1667;53.238;10.394;2024-02-26T19:37:21;18.77;;;9.30;;
3309;SDS011;1667;53.238;10.394;2024-02-26T19:42:20;20.23;;;11.63;;
3309;SDS011;1667;53.238;10.394;2024-02-26T19:47:19;18.43;;;10.50;;
3309;SDS011;1667;53.238;10.394;2024-02-26T19:52:20;19.27;;;11.27;;
3309;SDS011;1667;53.238;10.394;2024-02-26T19:57:20;23.37;;;12.20;;
3309;SDS011;1667;53.238;10.394;2024-02-26T20:02:21;21.20;;;12.27;;
3309;SDS011;1667;53.238;10.394;2024-02-26T20:07:22;26.70;;;13.70;;
3309;SDS011;1667;53.238;10.394;2024-02-26T20:12:21;20.17;;;11.70;;
3309;SDS011;1667;53.238;10.394;2024-02-26T20:17:20;20.00;;;11.40;;
3309;SDS011;1667;53.238;10.394;2024-02-26T20:22:19;23.40;;;12.50;;
3309;SDS011;1667;53.238;10.394;2024-02-26T20:27:20;21.13;;;13.27;;
3309;SDS011;1667;53.238;10.394;2024-02-26T20:32:18;21.73;;;12.60;;
3309;SDS011;1667;53.238;10.394;2024-02-26T20:37:18;21.53;;;12.70;;
3309;SDS011;1667;53.238;10.394;2024-02-26T20:42:24;23.40;;;13.67;;
3309;SDS011;1667;53.238;10.394;2024-02-26T20:47:23;24.23;;;14.13;;
3309;SDS011;1667;53.238;10.394;2024-02-26T20:52:22;23.27;;;12.17;;
3309;SDS011;1667;53.238;10.394;2024-02-26T20:57:21;22.27;;;12.30;;
3309;SDS011;1667;53.238;10.394;2024-02-26T21:02:21;22.60;;;12.83;;
3309;SDS011;1667;53.238;10.394;2024-02-26T21:07:30;20.80;;;11.73;;
3309;SDS011;1667;53.238;10.394;2024-02-26T21:12:29;21.10;;;13.23;;
3309;SDS011;1667;53.238;10.394;2024-02-26T21:17:31;22.70;;;11.33;;
3309;SDS011;1667;53.238;10.394;2024-02-26T21:22:30;19.90;;;12.00;;
3309;SDS011;1667;53.238;10.394;2024-02-26T21:27:29;19.70;;;11.03;;
3309;SDS011;1667;53.238;10.394;2024-02-26T21:32:28;22.83;;;12.13;;
3309;SDS011;1667;53.238;10.394;2024-02-26T21:37:29;22.17;;;10.83;;
3309;SDS011;1667;53.238;10.394;2024-02-26T21:42:29;22.80;;;11.37;;
3309;SDS011;1667;53.238;10.394;2024-02-26T21:47:29;24.33;;;13.77;;
3309;SDS011;1667;53.238;10.394;2024-02-26T21:52:30;22.70;;;12.57;;
3309;SDS011;1667;53.238;10.394;2024-02-26T21:57:29;20.43;;;11.30;;
3309;SDS011;1667;53.238;10.394;2024-02-26T22:02:28;19.03;;;10.50;;
3309;SDS011;1667;53.238;10.394;2024-02-26T22:07:29;20.87;;;11.53;;
3309;SDS011;1667;53.238;10.394;2024-02-26T22:12:28;24.03;;;12.80;;
3309;SDS011;1667;53.238;10.394;2024-02-26T22:17:27;22.90;;;11.10;;
3309;SDS011;1667;53.238;10.394;2024-02-26T22:22:26;21.57;;;11.00;;
3309;SDS011;1667;53.238;10.394;2024-02-26T22:27:26;22.40;;;11.37;;
3309;SDS011;1667;53.238;10.394;2024-02-26T22:32:25;19.20;;;12.00;;
3309;SDS011;1667;53.238;10.394;2024-02-26T22:37:24;26.17;;;13.13;;
3309;SDS011;1667;53.238;10.394;2024-02-26T22:42:22;21.10;;;12.50;;
3309;SDS011;1667;53.238;10.394;2024-02-26T22:47:23;20.13;;;10.87;;
3309;SDS011;1667;53.238;10.394;2024-02-26T22:52:22;24.27;;;13.37;;
3309;SDS011;1667;53.238;10.394;2024-02-26T22:57:21;21.13;;;13.10;;
3309;SDS011;1667;53.238;10.394;2024-02-26T23:02:20;23.03;;;12.00;;
3309;SDS011;1667;53.238;10.394;2024-02-26T23:07:20;25.47;;;13.90;;
3309;SDS011;1667;53.238;10.394;2024-02-26T23:12:19;22.03;;;12.13;;
3309;SDS011;1667;53.238;10.394;2024-02-26T23:17:18;25.27;;;12.50;;
3309;SDS011;1667;53.238;10.394;2024-02-26T23:22:17;21.77;;;12.57;;
3309;SDS011;1667;53.238;10.394;2024-02-26T23:27:17;26.13;;;13.80;;
3309;SDS011;1667;53.238;10.394;2024-02-26T23:32:16;29.53;;;12.60;;
3309;SDS011;1667;53.238;10.394;2024-02-26T23:37:15;26.27;;;12.93;;
3309;SDS011;1667;53.238;10.394;2024-02-26T23:42:14;22.37;;;12.73;;
3309;SDS011;1667;53.238;10.394;2024-02-26T23:47:15;23.20;;;10.10;;
3309;SDS011;1667;53.238;10.394;2024-02-26T23:52:14;27.47;;;13.03;;
3309;SDS011;1667;53.238;10.394;2024-02-26T23:57:14;24.90;;;12.13;;
